2022年5月18日

时间 代码 天气 温度 能见度 乌云 METAR/SPECI
09:20
V
20 °C 10 km+ - 140°   140° 10 kt METAR ETNT 180720Z 14010KT 9999 FEW130 SCT340 20/15 Q1020 BLACKBLU+
08:20
V
19 °C 10 km+ - 140°   140° 9 kt METAR ETNT 180620Z 14009KT 9999 FEW130 SCT340 19/15 Q1020 BLACKBLU+
07:20
V
17 °C 10 km+ - 130°   130° 8 kt METAR ETNT 180520Z 13008KT 9999 FEW060 SCT370 17/14 Q1020 BLACKBLU+
06:20
V
16 °C 10 km+ - 130°   130° 6 kt METAR ETNT 180420Z 13006KT 9999 FEW060 SCT350 16/14 Q1020 BLACKBLU+
05:20
L
16 °C 0 m - Var   000° 0 kt METAR ETNT 180320Z AUTO /////KT //// // ////// 16/14 Q1020 ///
04:20
L
16 °C 0 m - Var   000° 0 kt METAR ETNT 180220Z AUTO /////KT //// // ////// 16/14 Q1020 ///
03:20
L
16 °C 0 m - Var   000° 0 kt METAR ETNT 180120Z AUTO /////KT //// // ////// 16/14 Q1020 ///
02:20
L
16 °C 0 m - Var   000° 0 kt METAR ETNT 180020Z AUTO /////KT //// // ////// 16/15 Q1020 ///
01:20
L
16 °C 0 m - Var   000° 0 kt METAR ETNT 172320Z AUTO /////KT //// // ////// 16/14 Q1020 ///
00:20
L
17 °C 0 m - Var   000° 0 kt METAR ETNT 172220Z AUTO /////KT //// // ////// 17/15 Q1020 ///

2022年5月17日

时间 代码 天气 温度 能见度 乌云 METAR/SPECI
23:20
L
16 °C 0 m - Var   000° 0 kt METAR ETNT 172120Z AUTO /////KT //// // ////// 16/15 Q1020 ///
22:20
L
16 °C 0 m - Var   000° 0 kt METAR ETNT 172020Z AUTO /////KT //// // ////// 16/15 Q1020 ///
21:20
L
17 °C 0 m - Var   000° 0 kt METAR ETNT 171920Z AUTO /////KT //// // ////// 17/15 Q1020 ///
20:20
L
18 °C 0 m - Var   000° 0 kt METAR ETNT 171820Z AUTO /////KT //// // ////// 18/15 Q1020 ///
19:20
V
19 °C 10 km+ - 100°   100° 7 kt METAR ETNT 171720Z 10007KT 9999 FEW140 SCT220 19/15 Q1020 BLACKBLU+
18:20
V
19 °C 10 km+ - 100°   100° 7 kt METAR ETNT 171620Z 10007KT 9999 FEW024 19/15 Q1020 BLACKBLU+
17:20
V
20 °C 10 km+ - 050°   050° 5 kt METAR ETNT 171520Z 05005KT 9999 FEW024 20/15 Q1020 BLACKBLU+
16:20
V
21 °C 10 km+ - 050°   050° 5 kt METAR ETNT 171420Z 05005KT 9999 FEW018 SCT025 21/16 Q1020 BLACKBLU+
15:20
V
20 °C 10 km+ - 050°   050° 5 kt METAR ETNT 171320Z 05005KT 9999 FEW018 SCT030 20/15 Q1020 BLACKBLU+
14:20
V
21 °C 10 km+ 3.000 ft 280°   280° 7 kt METAR ETNT 171220Z 28007KT 9999 BKN030 21/15 Q1020 BLACKBLU
13:20
M
20 °C 10 km+ 2.000 ft 280°   280° 7 kt METAR ETNT 171120Z 28007KT 9999 BKN020 20/14 Q1020 BLACKWHT
12:20
M
20 °C 10 km+ 1.500 ft 280°   280° 7 kt METAR ETNT 171020Z 28007KT 9999 BKN015 20/15 Q1020 BLACKWHT
11:20
M
19 °C 10 km+ 1.200 ft 270°   270° 7 kt METAR ETNT 170920Z 27007KT 9999 BKN012 SCT220 19/15 Q1020 BLACKGRN
10:20
I
16 °C 10 km+ 900 ft 270°   270° 7 kt METAR ETNT 170820Z 27007KT 9999 BKN009 SCT036 16/14 Q1020 BLACKGRN
10:05
I
17 °C 10 km+ 900 ft 270°   270° 7 kt METAR ETNT 170805Z 27007KT 9999 BKN009 SCT036 17/14 Q1020 BLACKGRN
09:20
V
16 °C 10 km+ - 260°   260° 6 kt METAR ETNT 170720Z 26006KT 9999 SCT009 SCT038 16/13 Q1019 BLACKBLU+
08:20
V
15 °C 10 km+ 4.400 ft 260°   260° 6 kt METAR ETNT 170620Z 26006KT 9999 FEW009 BKN044 15/14 Q1019 BLACKBLU
07:20
V
14 °C 10 km+ - 070°   070° 2 kt METAR ETNT 170520Z 07002KT 9999 FEW020 SCT043 14/13 Q1018 BLACKBLU+
06:20
V
13 °C 10 km+ - Var   Var 1 kt METAR ETNT 170420Z VRB01KT 9999 FEW020 SCT048 13/13 Q1018 BLACKBLU+
05:20
L
14 °C 0 m - Var   000° 0 kt METAR ETNT 170320Z AUTO /////KT //// // ////// 14/13 Q1018 ///
04:20
L
14 °C 0 m - Var   000° 0 kt METAR ETNT 170220Z AUTO /////KT //// // ////// 14/13 Q1018 ///
03:20
L
15 °C 0 m - Var   000° 0 kt METAR ETNT 170120Z AUTO /////KT //// // ////// 15/14 Q1018 ///
02:20
L
15 °C 0 m - Var   000° 0 kt METAR ETNT 170020Z AUTO /////KT //// // ////// 15/15 Q1018 ///
01:20
L
16 °C 0 m - Var   000° 0 kt METAR ETNT 162320Z AUTO /////KT //// // ////// 16/15 Q1017 ///
00:20
L
16 °C 0 m - Var   000° 0 kt METAR ETNT 162220Z AUTO /////KT //// // ////// 16/15 Q1017 ///

2022年5月16日

时间 代码 天气 温度 能见度 乌云 METAR/SPECI
23:20
L
15 °C 0 m - Var   000° 0 kt METAR ETNT 162120Z AUTO /////KT //// // ////// 15/15 Q1017 ///
22:20
L
16 °C 0 m - Var   000° 0 kt METAR ETNT 162020Z AUTO /////KT //// // ////// 16/16 Q1017 ///
21:20
L
16 °C 0 m - Var   000° 0 kt METAR ETNT 161920Z AUTO /////KT //// // ////// 16/15 Q1017 ///
20:20
L
18 °C 0 m - Var   000° 0 kt METAR ETNT 161820Z AUTO /////KT //// // ////// 18/15 Q1015 ///
19:20
V
18 °C 10 km+ 10.000 ft 160°   160° 10 kt METAR ETNT 161720Z 16010KT 9999 RA FEW055 BKN100 18/15 Q1015 BLACKBLU
18:20
V
23 °C 10 km+ 10.000 ft 160°   160° 5 kt METAR ETNT 161620Z 16005KT 9999 FEW060 BKN100 23/12 Q1014 BLACKBLU
17:20
V
25 °C 10 km+ 10.000 ft 140°   140° 8 kt METAR ETNT 161520Z 14008KT 9999 FEW075 BKN100 25/10 Q1014 BLACKBLU
16:20
V
26 °C 10 km+ 12.000 ft 120°   120° 11 kt METAR ETNT 161420Z 12011KT 9999 SCT075 BKN120 26/09 Q1014 BLACKBLU
15:20
V
25 °C 10 km+ - 110°   110° 10 kt METAR ETNT 161320Z 11010KT 9999 FEW090 SCT180 25/09 Q1014 BLACKBLU+
14:20
V
24 °C 10 km+ 24.000 ft 110°   110° 10 kt METAR ETNT 161220Z 11010KT 9999 FEW160 BKN240 24/09 Q1015 BLACKBLU+
13:20
V
24 °C 10 km+ 20.000 ft 110°   110° 10 kt METAR ETNT 161120Z 11010KT 9999 FEW160 BKN200 24/10 Q1015 BLACKBLU+
12:20
V
22 °C 10 km+ 21.000 ft 110°   110° 10 kt METAR ETNT 161020Z 11010KT 9999 FEW160 BKN210 22/10 Q1015 BLACKBLU+
11:20
V
21 °C 10 km+ 20.000 ft 100°   100° 10 kt METAR ETNT 160920Z 10010KT 9999 FEW160 BKN200 21/10 Q1015 BLACKBLU+
10:20
V
18 °C 10 km+ 20.000 ft 110°   110° 10 kt METAR ETNT 160820Z 11010KT 9999 FEW160 BKN200 18/09 Q1016 BLACKBLU+
09:20
V
16 °C 10 km+ - 110°   110° 9 kt METAR ETNT 160720Z 11009KT 9999 SCT160 SCT230 16/08 Q1016 BLACKBLU+
较旧的数据

下载我们的应用程序

在您的手机和平板电脑上轻松访问所有航空天气。
有许多网站上没有的功能,如离线支持和个人机场列表。

Studio Eveline

Benalmádena
España